International Virtual Aviation Organisation

Eastern Europe and Northern Asia MCD

 
URML 201000Z 15009MPS 9999 NSC 17/09 Q1009 R14/01//70 TEMPO 14011G16MPS RMK QFE756/1009
QNH:(hPa/inHg/mmHg)1009 / 29.8 / 757
QFE:(hPa/inHg/mmHg)1008 / 29.78 / 756
Temperature17
Dew Point9
Visibility> 10000
Weather
Cloud Cover
Transition Height3000 m./9900 ft.
Transition LevelFL120
SQUAWK